sensor_id;sensor_type;location;lat;lon;timestamp;P1;durP1;ratioP1;P2;durP2;ratioP2
27925;SDS011;15267;47.838;12.128;2023-12-29T00:02:10;6.65;;;4.22;;
27925;SDS011;15267;47.838;12.128;2023-12-29T00:04:36;7.22;;;4.43;;
27925;SDS011;15267;47.838;12.128;2023-12-29T00:07:02;6.57;;;4.13;;
27925;SDS011;15267;47.838;12.128;2023-12-29T00:09:28;6.85;;;4.03;;
27925;SDS011;15267;47.838;12.128;2023-12-29T00:11:55;7.50;;;4.60;;
27925;SDS011;15267;47.838;12.128;2023-12-29T00:14:20;7.63;;;4.60;;
27925;SDS011;15267;47.838;12.128;2023-12-29T00:16:46;6.20;;;3.90;;
27925;SDS011;15267;47.838;12.128;2023-12-29T00:19:12;7.53;;;4.40;;
27925;SDS011;15267;47.838;12.128;2023-12-29T00:21:38;6.60;;;4.28;;
27925;SDS011;15267;47.838;12.128;2023-12-29T00:24:04;5.90;;;4.22;;
27925;SDS011;15267;47.838;12.128;2023-12-29T00:26:30;6.68;;;4.30;;
27925;SDS011;15267;47.838;12.128;2023-12-29T00:28:56;7.30;;;4.30;;
27925;SDS011;15267;47.838;12.128;2023-12-29T00:31:23;9.98;;;4.40;;
27925;SDS011;15267;47.838;12.128;2023-12-29T00:33:49;6.70;;;4.80;;
27925;SDS011;15267;47.838;12.128;2023-12-29T00:36:17;8.52;;;4.50;;
27925;SDS011;15267;47.838;12.128;2023-12-29T00:38:43;7.25;;;4.60;;
27925;SDS011;15267;47.838;12.128;2023-12-29T00:41:09;7.32;;;4.68;;
27925;SDS011;15267;47.838;12.128;2023-12-29T00:43:35;6.18;;;4.50;;
27925;SDS011;15267;47.838;12.128;2023-12-29T00:46:02;6.25;;;4.38;;
27925;SDS011;15267;47.838;12.128;2023-12-29T00:48:28;7.95;;;4.70;;
27925;SDS011;15267;47.838;12.128;2023-12-29T00:50:54;7.30;;;4.55;;
27925;SDS011;15267;47.838;12.128;2023-12-29T00:53:20;7.38;;;4.55;;
27925;SDS011;15267;47.838;12.128;2023-12-29T00:55:46;6.70;;;4.40;;
27925;SDS011;15267;47.838;12.128;2023-12-29T00:58:12;7.35;;;4.07;;
27925;SDS011;15267;47.838;12.128;2023-12-29T01:00:38;6.03;;;4.20;;
27925;SDS011;15267;47.838;12.128;2023-12-29T01:03:04;6.78;;;4.30;;
27925;SDS011;15267;47.838;12.128;2023-12-29T01:05:30;6.32;;;4.03;;
27925;SDS011;15267;47.838;12.128;2023-12-29T01:07:56;5.00;;;3.35;;
27925;SDS011;15267;47.838;12.128;2023-12-29T01:10:22;5.30;;;3.90;;
27925;SDS011;15267;47.838;12.128;2023-12-29T01:12:48;6.25;;;3.92;;
27925;SDS011;15267;47.838;12.128;2023-12-29T01:15:14;6.28;;;4.13;;
27925;SDS011;15267;47.838;12.128;2023-12-29T01:17:40;6.55;;;3.92;;
27925;SDS011;15267;47.838;12.128;2023-12-29T01:20:06;5.93;;;3.90;;
27925;SDS011;15267;47.838;12.128;2023-12-29T01:22:32;5.20;;;3.60;;
27925;SDS011;15267;47.838;12.128;2023-12-29T01:24:59;5.20;;;3.75;;
27925;SDS011;15267;47.838;12.128;2023-12-29T01:27:25;7.22;;;5.13;;
27925;SDS011;15267;47.838;12.128;2023-12-29T01:29:51;6.82;;;4.13;;
27925;SDS011;15267;47.838;12.128;2023-12-29T01:32:18;6.78;;;4.53;;
27925;SDS011;15267;47.838;12.128;2023-12-29T01:34:44;6.10;;;4.03;;
27925;SDS011;15267;47.838;12.128;2023-12-29T01:37:10;5.85;;;4.18;;
27925;SDS011;15267;47.838;12.128;2023-12-29T01:39:36;5.95;;;4.28;;
27925;SDS011;15267;47.838;12.128;2023-12-29T01:42:02;9.20;;;4.32;;
27925;SDS011;15267;47.838;12.128;2023-12-29T01:44:28;5.95;;;4.25;;
27925;SDS011;15267;47.838;12.128;2023-12-29T01:46:54;7.20;;;3.90;;
27925;SDS011;15267;47.838;12.128;2023-12-29T01:49:21;7.28;;;4.00;;
27925;SDS011;15267;47.838;12.128;2023-12-29T01:51:51;7.30;;;3.83;;
27925;SDS011;15267;47.838;12.128;2023-12-29T01:54:18;7.40;;;4.00;;
27925;SDS011;15267;47.838;12.128;2023-12-29T01:56:44;8.18;;;4.40;;
27925;SDS011;15267;47.838;12.128;2023-12-29T01:59:10;5.63;;;3.88;;
27925;SDS011;15267;47.838;12.128;2023-12-29T02:01:37;7.35;;;4.43;;
27925;SDS011;15267;47.838;12.128;2023-12-29T02:04:06;5.85;;;3.95;;
27925;SDS011;15267;47.838;12.128;2023-12-29T02:06:33;6.78;;;4.30;;
27925;SDS011;15267;47.838;12.128;2023-12-29T02:09:01;6.13;;;4.00;;
27925;SDS011;15267;47.838;12.128;2023-12-29T02:11:28;7.30;;;4.40;;
27925;SDS011;15267;47.838;12.128;2023-12-29T02:13:54;6.70;;;4.82;;
27925;SDS011;15267;47.838;12.128;2023-12-29T02:18:58;6.95;;;4.63;;
27925;SDS011;15267;47.838;12.128;2023-12-29T02:21:25;7.28;;;4.47;;
27925;SDS011;15267;47.838;12.128;2023-12-29T02:23:51;7.75;;;4.50;;
27925;SDS011;15267;47.838;12.128;2023-12-29T02:26:17;5.97;;;4.40;;
27925;SDS011;15267;47.838;12.128;2023-12-29T02:28:46;8.05;;;4.40;;
27925;SDS011;15267;47.838;12.128;2023-12-29T02:31:16;6.70;;;4.10;;
27925;SDS011;15267;47.838;12.128;2023-12-29T02:33:43;8.02;;;4.20;;
27925;SDS011;15267;47.838;12.128;2023-12-29T02:36:10;5.35;;;4.10;;
27925;SDS011;15267;47.838;12.128;2023-12-29T02:38:38;6.10;;;4.00;;
27925;SDS011;15267;47.838;12.128;2023-12-29T02:41:04;6.45;;;4.03;;
27925;SDS011;15267;47.838;12.128;2023-12-29T02:43:33;7.10;;;4.22;;
27925;SDS011;15267;47.838;12.128;2023-12-29T02:45:59;6.55;;;3.90;;
27925;SDS011;15267;47.838;12.128;2023-12-29T02:48:25;5.97;;;4.00;;
27925;SDS011;15267;47.838;12.128;2023-12-29T02:50:51;8.15;;;4.05;;
27925;SDS011;15267;47.838;12.128;2023-12-29T02:53:17;7.50;;;3.80;;
27925;SDS011;15267;47.838;12.128;2023-12-29T02:55:43;6.55;;;3.58;;
27925;SDS011;15267;47.838;12.128;2023-12-29T02:58:09;5.32;;;3.50;;
27925;SDS011;15267;47.838;12.128;2023-12-29T03:00:35;6.60;;;3.63;;
27925;SDS011;15267;47.838;12.128;2023-12-29T03:03:01;4.68;;;3.40;;
27925;SDS011;15267;47.838;12.128;2023-12-29T03:05:27;4.45;;;3.58;;
27925;SDS011;15267;47.838;12.128;2023-12-29T03:07:52;6.03;;;3.47;;
27925;SDS011;15267;47.838;12.128;2023-12-29T03:10:18;5.95;;;3.47;;
27925;SDS011;15267;47.838;12.128;2023-12-29T03:12:44;4.93;;;2.95;;
27925;SDS011;15267;47.838;12.128;2023-12-29T03:15:10;6.32;;;3.38;;
27925;SDS011;15267;47.838;12.128;2023-12-29T03:17:36;4.70;;;3.00;;
27925;SDS011;15267;47.838;12.128;2023-12-29T03:20:02;5.45;;;3.10;;
27925;SDS011;15267;47.838;12.128;2023-12-29T03:22:29;6.53;;;3.00;;
27925;SDS011;15267;47.838;12.128;2023-12-29T03:24:55;4.13;;;3.05;;
27925;SDS011;15267;47.838;12.128;2023-12-29T03:27:21;5.45;;;2.72;;
27925;SDS011;15267;47.838;12.128;2023-12-29T03:29:47;4.10;;;3.10;;
27925;SDS011;15267;47.838;12.128;2023-12-29T03:32:13;5.82;;;3.25;;
27925;SDS011;15267;47.838;12.128;2023-12-29T03:34:40;5.10;;;3.35;;
27925;SDS011;15267;47.838;12.128;2023-12-29T03:37:06;4.50;;;3.00;;
27925;SDS011;15267;47.838;12.128;2023-12-29T03:39:32;4.55;;;3.08;;
27925;SDS011;15267;47.838;12.128;2023-12-29T03:42:00;5.07;;;2.90;;
27925;SDS011;15267;47.838;12.128;2023-12-29T03:44:26;5.32;;;3.30;;
27925;SDS011;15267;47.838;12.128;2023-12-29T03:46:52;4.90;;;3.10;;
27925;SDS011;15267;47.838;12.128;2023-12-29T03:49:18;4.25;;;3.15;;
27925;SDS011;15267;47.838;12.128;2023-12-29T03:51:44;5.63;;;3.17;;
27925;SDS011;15267;47.838;12.128;2023-12-29T03:54:11;6.55;;;3.13;;
27925;SDS011;15267;47.838;12.128;2023-12-29T03:56:37;5.97;;;3.45;;
27925;SDS011;15267;47.838;12.128;2023-12-29T03:59:03;4.35;;;3.10;;
27925;SDS011;15267;47.838;12.128;2023-12-29T04:01:29;4.10;;;2.90;;
27925;SDS011;15267;47.838;12.128;2023-12-29T04:03:55;4.28;;;3.03;;
27925;SDS011;15267;47.838;12.128;2023-12-29T04:06:21;4.20;;;2.80;;
27925;SDS011;15267;47.838;12.128;2023-12-29T04:08:46;3.95;;;2.83;;
27925;SDS011;15267;47.838;12.128;2023-12-29T04:11:12;11.45;;;5.65;;
27925;SDS011;15267;47.838;12.128;2023-12-29T04:13:38;5.22;;;3.25;;
27925;SDS011;15267;47.838;12.128;2023-12-29T04:16:04;4.05;;;2.95;;
27925;SDS011;15267;47.838;12.128;2023-12-29T04:18:30;3.60;;;2.55;;
27925;SDS011;15267;47.838;12.128;2023-12-29T04:20:56;4.32;;;3.08;;
27925;SDS011;15267;47.838;12.128;2023-12-29T04:23:22;6.70;;;3.15;;
27925;SDS011;15267;47.838;12.128;2023-12-29T04:25:48;4.97;;;3.03;;
27925;SDS011;15267;47.838;12.128;2023-12-29T04:28:14;4.60;;;3.10;;
27925;SDS011;15267;47.838;12.128;2023-12-29T04:30:40;4.05;;;2.90;;
27925;SDS011;15267;47.838;12.128;2023-12-29T04:33:06;6.28;;;3.25;;
27925;SDS011;15267;47.838;12.128;2023-12-29T04:35:32;4.55;;;3.10;;
27925;SDS011;15267;47.838;12.128;2023-12-29T04:37:58;5.32;;;3.40;;
27925;SDS011;15267;47.838;12.128;2023-12-29T04:40:24;3.78;;;2.90;;
27925;SDS011;15267;47.838;12.128;2023-12-29T04:42:50;4.97;;;3.00;;
27925;SDS011;15267;47.838;12.128;2023-12-29T04:45:16;5.30;;;2.90;;
27925;SDS011;15267;47.838;12.128;2023-12-29T04:47:42;3.42;;;2.83;;
27925;SDS011;15267;47.838;12.128;2023-12-29T04:50:08;4.18;;;3.00;;
27925;SDS011;15267;47.838;12.128;2023-12-29T04:52:34;3.40;;;2.65;;
27925;SDS011;15267;47.838;12.128;2023-12-29T04:55:00;4.88;;;2.97;;
27925;SDS011;15267;47.838;12.128;2023-12-29T04:57:26;8.48;;;3.20;;
27925;SDS011;15267;47.838;12.128;2023-12-29T04:59:52;3.78;;;2.83;;
27925;SDS011;15267;47.838;12.128;2023-12-29T05:02:18;4.75;;;3.10;;
27925;SDS011;15267;47.838;12.128;2023-12-29T05:04:44;7.30;;;3.50;;
27925;SDS011;15267;47.838;12.128;2023-12-29T05:07:11;5.97;;;3.30;;
27925;SDS011;15267;47.838;12.128;2023-12-29T05:09:37;5.07;;;3.15;;
27925;SDS011;15267;47.838;12.128;2023-12-29T05:12:03;5.95;;;3.47;;
27925;SDS011;15267;47.838;12.128;2023-12-29T05:14:29;6.63;;;3.25;;
27925;SDS011;15267;47.838;12.128;2023-12-29T05:16:55;6.35;;;3.40;;
27925;SDS011;15267;47.838;12.128;2023-12-29T05:19:21;5.47;;;3.60;;
27925;SDS011;15267;47.838;12.128;2023-12-29T05:21:47;4.25;;;3.20;;
27925;SDS011;15267;47.838;12.128;2023-12-29T05:24:16;5.50;;;3.58;;
27925;SDS011;15267;47.838;12.128;2023-12-29T05:26:42;6.53;;;3.67;;
27925;SDS011;15267;47.838;12.128;2023-12-29T05:29:08;5.45;;;3.42;;
27925;SDS011;15267;47.838;12.128;2023-12-29T05:31:33;5.43;;;3.70;;
27925;SDS011;15267;47.838;12.128;2023-12-29T05:33:59;6.60;;;3.70;;
27925;SDS011;15267;47.838;12.128;2023-12-29T05:36:25;6.50;;;4.03;;
27925;SDS011;15267;47.838;12.128;2023-12-29T05:38:51;6.32;;;3.88;;
27925;SDS011;15267;47.838;12.128;2023-12-29T05:41:18;6.38;;;3.65;;
27925;SDS011;15267;47.838;12.128;2023-12-29T05:43:44;11.68;;;6.35;;
27925;SDS011;15267;47.838;12.128;2023-12-29T05:46:10;7.55;;;4.22;;
27925;SDS011;15267;47.838;12.128;2023-12-29T05:48:36;8.32;;;4.38;;
27925;SDS011;15267;47.838;12.128;2023-12-29T05:51:09;5.95;;;3.58;;
27925;SDS011;15267;47.838;12.128;2023-12-29T05:53:36;5.67;;;3.77;;
27925;SDS011;15267;47.838;12.128;2023-12-29T05:56:02;6.43;;;4.13;;
27925;SDS011;15267;47.838;12.128;2023-12-29T05:58:28;9.30;;;4.75;;
27925;SDS011;15267;47.838;12.128;2023-12-29T06:00:57;8.70;;;4.60;;
27925;SDS011;15267;47.838;12.128;2023-12-29T06:03:26;6.40;;;4.40;;
27925;SDS011;15267;47.838;12.128;2023-12-29T06:05:52;6.00;;;4.18;;
27925;SDS011;15267;47.838;12.128;2023-12-29T06:08:18;4.38;;;3.10;;
27925;SDS011;15267;47.838;12.128;2023-12-29T06:10:44;5.72;;;3.55;;
27925;SDS011;15267;47.838;12.128;2023-12-29T06:13:10;5.07;;;3.08;;
27925;SDS011;15267;47.838;12.128;2023-12-29T06:15:37;5.13;;;3.08;;
27925;SDS011;15267;47.838;12.128;2023-12-29T06:18:03;4.68;;;3.10;;
27925;SDS011;15267;47.838;12.128;2023-12-29T06:20:29;5.13;;;3.30;;
27925;SDS011;15267;47.838;12.128;2023-12-29T06:22:55;5.75;;;3.35;;
27925;SDS011;15267;47.838;12.128;2023-12-29T06:25:21;5.15;;;3.47;;
27925;SDS011;15267;47.838;12.128;2023-12-29T06:27:47;4.75;;;3.38;;
27925;SDS011;15267;47.838;12.128;2023-12-29T06:30:13;4.78;;;3.40;;
27925;SDS011;15267;47.838;12.128;2023-12-29T06:32:40;5.65;;;3.65;;
27925;SDS011;15267;47.838;12.128;2023-12-29T06:35:06;4.78;;;3.10;;
27925;SDS011;15267;47.838;12.128;2023-12-29T06:37:34;4.70;;;3.30;;
27925;SDS011;15267;47.838;12.128;2023-12-29T06:40:01;6.32;;;3.40;;
27925;SDS011;15267;47.838;12.128;2023-12-29T06:42:28;4.05;;;2.88;;
27925;SDS011;15267;47.838;12.128;2023-12-29T06:44:54;3.45;;;2.60;;
27925;SDS011;15267;47.838;12.128;2023-12-29T06:47:20;5.20;;;3.03;;
27925;SDS011;15267;47.838;12.128;2023-12-29T06:49:46;5.57;;;3.33;;
27925;SDS011;15267;47.838;12.128;2023-12-29T06:52:12;6.47;;;3.20;;
27925;SDS011;15267;47.838;12.128;2023-12-29T06:54:38;4.40;;;3.30;;
27925;SDS011;15267;47.838;12.128;2023-12-29T06:57:04;5.70;;;3.20;;
27925;SDS011;15267;47.838;12.128;2023-12-29T06:59:30;7.35;;;3.00;;
27925;SDS011;15267;47.838;12.128;2023-12-29T07:01:56;4.75;;;3.13;;
27925;SDS011;15267;47.838;12.128;2023-12-29T07:04:22;4.80;;;3.58;;
27925;SDS011;15267;47.838;12.128;2023-12-29T07:06:48;5.55;;;3.00;;
27925;SDS011;15267;47.838;12.128;2023-12-29T07:09:14;4.80;;;3.20;;
27925;SDS011;15267;47.838;12.128;2023-12-29T07:11:40;6.25;;;3.95;;
27925;SDS011;15267;47.838;12.128;2023-12-29T07:14:06;5.90;;;3.53;;
27925;SDS011;15267;47.838;12.128;2023-12-29T07:16:32;4.85;;;3.50;;
27925;SDS011;15267;47.838;12.128;2023-12-29T07:18:58;4.97;;;3.50;;
27925;SDS011;15267;47.838;12.128;2023-12-29T07:21:24;5.50;;;3.20;;
27925;SDS011;15267;47.838;12.128;2023-12-29T07:23:50;5.65;;;3.55;;
27925;SDS011;15267;47.838;12.128;2023-12-29T07:26:15;4.20;;;3.17;;
27925;SDS011;15267;47.838;12.128;2023-12-29T07:28:41;5.47;;;3.10;;
27925;SDS011;15267;47.838;12.128;2023-12-29T07:31:07;3.97;;;3.20;;
27925;SDS011;15267;47.838;12.128;2023-12-29T07:33:33;4.68;;;3.00;;
27925;SDS011;15267;47.838;12.128;2023-12-29T07:35:59;4.95;;;3.13;;
27925;SDS011;15267;47.838;12.128;2023-12-29T07:38:25;5.50;;;2.70;;
27925;SDS011;15267;47.838;12.128;2023-12-29T07:40:51;5.72;;;3.20;;
27925;SDS011;15267;47.838;12.128;2023-12-29T07:43:17;5.70;;;3.20;;
27925;SDS011;15267;47.838;12.128;2023-12-29T07:45:43;3.65;;;3.10;;
27925;SDS011;15267;47.838;12.128;2023-12-29T07:48:09;5.35;;;3.03;;
27925;SDS011;15267;47.838;12.128;2023-12-29T07:50:35;5.32;;;3.60;;
27925;SDS011;15267;47.838;12.128;2023-12-29T07:53:01;5.75;;;3.30;;
27925;SDS011;15267;47.838;12.128;2023-12-29T07:55:28;4.47;;;3.10;;
27925;SDS011;15267;47.838;12.128;2023-12-29T07:57:54;6.00;;;3.20;;
27925;SDS011;15267;47.838;12.128;2023-12-29T08:00:20;6.20;;;3.10;;
27925;SDS011;15267;47.838;12.128;2023-12-29T08:02:47;6.43;;;3.47;;
27925;SDS011;15267;47.838;12.128;2023-12-29T08:05:13;5.60;;;3.40;;
27925;SDS011;15267;47.838;12.128;2023-12-29T08:07:40;5.30;;;3.45;;
27925;SDS011;15267;47.838;12.128;2023-12-29T08:10:06;4.22;;;3.08;;
27925;SDS011;15267;47.838;12.128;2023-12-29T08:12:33;4.78;;;3.40;;
27925;SDS011;15267;47.838;12.128;2023-12-29T08:15:00;4.13;;;3.10;;
27925;SDS011;15267;47.838;12.128;2023-12-29T08:17:26;4.72;;;3.20;;
27925;SDS011;15267;47.838;12.128;2023-12-29T08:19:53;5.00;;;3.30;;
27925;SDS011;15267;47.838;12.128;2023-12-29T08:22:19;5.88;;;3.47;;
27925;SDS011;15267;47.838;12.128;2023-12-29T08:24:45;6.07;;;3.55;;
27925;SDS011;15267;47.838;12.128;2023-12-29T08:27:14;9.10;;;3.92;;
27925;SDS011;15267;47.838;12.128;2023-12-29T08:29:40;6.50;;;3.50;;
27925;SDS011;15267;47.838;12.128;2023-12-29T08:32:06;5.03;;;3.40;;
27925;SDS011;15267;47.838;12.128;2023-12-29T08:34:32;4.50;;;3.33;;
27925;SDS011;15267;47.838;12.128;2023-12-29T08:37:03;4.95;;;2.70;;
27925;SDS011;15267;47.838;12.128;2023-12-29T08:39:29;5.32;;;2.97;;
27925;SDS011;15267;47.838;12.128;2023-12-29T08:41:54;6.30;;;3.03;;
27925;SDS011;15267;47.838;12.128;2023-12-29T08:44:20;5.60;;;3.28;;
27925;SDS011;15267;47.838;12.128;2023-12-29T08:46:46;5.97;;;3.33;;
27925;SDS011;15267;47.838;12.128;2023-12-29T08:49:12;5.43;;;3.00;;
27925;SDS011;15267;47.838;12.128;2023-12-29T08:51:38;5.25;;;3.28;;
27925;SDS011;15267;47.838;12.128;2023-12-29T08:54:04;4.40;;;3.00;;
27925;SDS011;15267;47.838;12.128;2023-12-29T08:56:30;4.30;;;2.95;;
27925;SDS011;15267;47.838;12.128;2023-12-29T08:58:56;6.82;;;2.78;;
27925;SDS011;15267;47.838;12.128;2023-12-29T09:01:22;4.35;;;3.28;;
27925;SDS011;15267;47.838;12.128;2023-12-29T09:03:48;4.10;;;2.80;;
27925;SDS011;15267;47.838;12.128;2023-12-29T09:06:14;4.53;;;2.63;;
27925;SDS011;15267;47.838;12.128;2023-12-29T09:08:40;4.72;;;3.00;;
27925;SDS011;15267;47.838;12.128;2023-12-29T09:11:06;4.40;;;3.17;;
27925;SDS011;15267;47.838;12.128;2023-12-29T09:13:32;5.70;;;3.30;;
27925;SDS011;15267;47.838;12.128;2023-12-29T09:15:59;4.15;;;3.25;;
27925;SDS011;15267;47.838;12.128;2023-12-29T09:18:25;4.15;;;2.90;;
27925;SDS011;15267;47.838;12.128;2023-12-29T09:20:51;5.07;;;3.40;;
27925;SDS011;15267;47.838;12.128;2023-12-29T09:23:17;4.40;;;3.20;;
27925;SDS011;15267;47.838;12.128;2023-12-29T09:25:43;5.47;;;3.30;;
27925;SDS011;15267;47.838;12.128;2023-12-29T09:28:09;4.72;;;3.42;;
27925;SDS011;15267;47.838;12.128;2023-12-29T09:30:35;4.40;;;3.50;;
27925;SDS011;15267;47.838;12.128;2023-12-29T09:33:01;7.38;;;3.63;;
27925;SDS011;15267;47.838;12.128;2023-12-29T09:35:28;4.93;;;3.00;;
27925;SDS011;15267;47.838;12.128;2023-12-29T09:37:54;5.25;;;3.55;;
27925;SDS011;15267;47.838;12.128;2023-12-29T09:40:20;3.83;;;3.22;;
27925;SDS011;15267;47.838;12.128;2023-12-29T09:42:46;4.85;;;3.05;;
27925;SDS011;15267;47.838;12.128;2023-12-29T09:45:13;4.75;;;3.40;;
27925;SDS011;15267;47.838;12.128;2023-12-29T09:47:40;5.45;;;3.13;;
27925;SDS011;15267;47.838;12.128;2023-12-29T09:50:15;4.30;;;2.80;;
27925;SDS011;15267;47.838;12.128;2023-12-29T09:52:41;4.60;;;3.22;;
27925;SDS011;15267;47.838;12.128;2023-12-29T09:55:09;5.07;;;3.17;;
27925;SDS011;15267;47.838;12.128;2023-12-29T09:57:36;3.55;;;2.65;;
27925;SDS011;15267;47.838;12.128;2023-12-29T10:00:02;4.50;;;2.92;;
27925;SDS011;15267;47.838;12.128;2023-12-29T10:02:28;4.90;;;2.67;;
27925;SDS011;15267;47.838;12.128;2023-12-29T10:04:55;5.60;;;2.67;;
27925;SDS011;15267;47.838;12.128;2023-12-29T10:07:25;3.85;;;2.67;;
27925;SDS011;15267;47.838;12.128;2023-12-29T10:09:57;3.75;;;2.50;;
27925;SDS011;15267;47.838;12.128;2023-12-29T10:12:24;4.13;;;2.60;;
27925;SDS011;15267;47.838;12.128;2023-12-29T10:17:28;3.90;;;2.60;;
27925;SDS011;15267;47.838;12.128;2023-12-29T10:20:08;4.82;;;2.40;;
27925;SDS011;15267;47.838;12.128;2023-12-29T10:25:09;3.70;;;2.40;;
27925;SDS011;15267;47.838;12.128;2023-12-29T10:27:36;2.88;;;2.33;;
27925;SDS011;15267;47.838;12.128;2023-12-29T10:30:02;3.30;;;2.50;;
27925;SDS011;15267;47.838;12.128;2023-12-29T10:32:28;2.70;;;2.15;;
27925;SDS011;15267;47.838;12.128;2023-12-29T10:35:07;3.13;;;2.38;;
27925;SDS011;15267;47.838;12.128;2023-12-29T10:37:34;3.60;;;2.30;;
27925;SDS011;15267;47.838;12.128;2023-12-29T10:40:01;3.47;;;2.15;;
27925;SDS011;15267;47.838;12.128;2023-12-29T10:42:27;3.30;;;2.40;;
27925;SDS011;15267;47.838;12.128;2023-12-29T10:45:06;2.88;;;2.20;;
27925;SDS011;15267;47.838;12.128;2023-12-29T10:47:32;3.17;;;2.50;;
27925;SDS011;15267;47.838;12.128;2023-12-29T10:50:00;4.85;;;2.47;;
27925;SDS011;15267;47.838;12.128;2023-12-29T10:52:26;2.80;;;2.08;;
27925;SDS011;15267;47.838;12.128;2023-12-29T10:55:03;5.20;;;2.03;;
27925;SDS011;15267;47.838;12.128;2023-12-29T10:57:29;4.78;;;1.90;;
27925;SDS011;15267;47.838;12.128;2023-12-29T10:59:55;4.05;;;1.60;;
27925;SDS011;15267;47.838;12.128;2023-12-29T11:02:21;2.20;;;1.80;;
27925;SDS011;15267;47.838;12.128;2023-12-29T11:04:47;2.88;;;1.60;;
27925;SDS011;15267;47.838;12.128;2023-12-29T11:07:15;2.33;;;1.50;;
27925;SDS011;15267;47.838;12.128;2023-12-29T11:09:41;2.25;;;1.60;;
27925;SDS011;15267;47.838;12.128;2023-12-29T11:12:07;2.28;;;1.60;;
27925;SDS011;15267;47.838;12.128;2023-12-29T11:14:35;2.15;;;1.55;;
27925;SDS011;15267;47.838;12.128;2023-12-29T11:17:01;1.73;;;1.42;;
27925;SDS011;15267;47.838;12.128;2023-12-29T11:19:29;1.77;;;1.48;;
27925;SDS011;15267;47.838;12.128;2023-12-29T11:21:55;2.90;;;1.90;;
27925;SDS011;15267;47.838;12.128;2023-12-29T11:24:22;3.05;;;1.92;;
27925;SDS011;15267;47.838;12.128;2023-12-29T11:26:48;3.28;;;2.15;;
27925;SDS011;15267;47.838;12.128;2023-12-29T11:29:15;2.38;;;2.00;;
27925;SDS011;15267;47.838;12.128;2023-12-29T11:31:41;2.75;;;2.03;;
27925;SDS011;15267;47.838;12.128;2023-12-29T11:34:12;3.67;;;2.00;;
27925;SDS011;15267;47.838;12.128;2023-12-29T11:36:40;4.18;;;1.90;;
27925;SDS011;15267;47.838;12.128;2023-12-29T11:39:24;2.42;;;1.85;;
27925;SDS011;15267;47.838;12.128;2023-12-29T11:42:12;2.28;;;1.85;;
27925;SDS011;15267;47.838;12.128;2023-12-29T11:44:40;3.60;;;2.28;;
27925;SDS011;15267;47.838;12.128;2023-12-29T11:47:06;2.65;;;1.90;;
27925;SDS011;15267;47.838;12.128;2023-12-29T11:49:58;3.20;;;2.10;;
27925;SDS011;15267;47.838;12.128;2023-12-29T11:52:43;3.78;;;1.73;;
27925;SDS011;15267;47.838;12.128;2023-12-29T11:55:10;3.38;;;2.00;;
27925;SDS011;15267;47.838;12.128;2023-12-29T11:57:36;2.30;;;1.67;;
27925;SDS011;15267;47.838;12.128;2023-12-29T12:00:04;2.42;;;1.60;;
27925;SDS011;15267;47.838;12.128;2023-12-29T12:02:30;2.67;;;1.92;;
27925;SDS011;15267;47.838;12.128;2023-12-29T12:04:57;3.05;;;2.00;;
27925;SDS011;15267;47.838;12.128;2023-12-29T12:12:43;3.03;;;1.85;;
27925;SDS011;15267;47.838;12.128;2023-12-29T12:17:54;2.50;;;1.70;;
27925;SDS011;15267;47.838;12.128;2023-12-29T12:20:20;3.60;;;1.60;;
27925;SDS011;15267;47.838;12.128;2023-12-29T12:22:48;2.88;;;1.98;;
27925;SDS011;15267;47.838;12.128;2023-12-29T12:25:15;3.17;;;2.08;;
27925;SDS011;15267;47.838;12.128;2023-12-29T12:27:41;2.40;;;1.80;;
27925;SDS011;15267;47.838;12.128;2023-12-29T12:30:08;3.13;;;1.88;;
27925;SDS011;15267;47.838;12.128;2023-12-29T12:32:35;2.15;;;1.80;;
27925;SDS011;15267;47.838;12.128;2023-12-29T12:35:01;2.13;;;1.60;;
27925;SDS011;15267;47.838;12.128;2023-12-29T12:37:28;2.03;;;1.58;;
27925;SDS011;15267;47.838;12.128;2023-12-29T12:39:54;3.33;;;1.73;;
27925;SDS011;15267;47.838;12.128;2023-12-29T12:42:21;2.53;;;1.75;;
27925;SDS011;15267;47.838;12.128;2023-12-29T12:45:03;3.67;;;1.48;;
27925;SDS011;15267;47.838;12.128;2023-12-29T12:47:32;2.65;;;1.63;;
27925;SDS011;15267;47.838;12.128;2023-12-29T12:50:00;1.65;;;1.48;;
27925;SDS011;15267;47.838;12.128;2023-12-29T12:52:30;2.40;;;1.70;;
27925;SDS011;15267;47.838;12.128;2023-12-29T12:54:56;3.33;;;1.60;;
27925;SDS011;15267;47.838;12.128;2023-12-29T12:57:22;2.42;;;1.73;;
27925;SDS011;15267;47.838;12.128;2023-12-29T12:59:48;2.92;;;1.90;;
27925;SDS011;15267;47.838;12.128;2023-12-29T13:02:15;3.67;;;1.90;;
27925;SDS011;15267;47.838;12.128;2023-12-29T13:04:41;2.10;;;1.80;;
27925;SDS011;15267;47.838;12.128;2023-12-29T13:07:08;2.97;;;1.90;;
27925;SDS011;15267;47.838;12.128;2023-12-29T13:09:37;2.53;;;1.80;;
27925;SDS011;15267;47.838;12.128;2023-12-29T13:12:10;2.47;;;1.67;;
27925;SDS011;15267;47.838;12.128;2023-12-29T13:14:36;3.57;;;2.10;;
27925;SDS011;15267;47.838;12.128;2023-12-29T13:17:05;3.33;;;2.10;;
27925;SDS011;15267;47.838;12.128;2023-12-29T13:19:31;3.47;;;2.03;;
27925;SDS011;15267;47.838;12.128;2023-12-29T13:21:59;3.03;;;1.90;;
27925;SDS011;15267;47.838;12.128;2023-12-29T13:24:26;4.25;;;2.10;;
27925;SDS011;15267;47.838;12.128;2023-12-29T13:27:12;2.45;;;2.10;;
27925;SDS011;15267;47.838;12.128;2023-12-29T13:29:39;3.72;;;2.33;;
27925;SDS011;15267;47.838;12.128;2023-12-29T13:32:07;5.22;;;3.00;;
27925;SDS011;15267;47.838;12.128;2023-12-29T13:34:35;4.85;;;2.90;;
27925;SDS011;15267;47.838;12.128;2023-12-29T13:41:58;4.82;;;3.00;;
27925;SDS011;15267;47.838;12.128;2023-12-29T13:44:25;4.47;;;2.33;;
27925;SDS011;15267;47.838;12.128;2023-12-29T13:46:52;4.22;;;2.80;;
27925;SDS011;15267;47.838;12.128;2023-12-29T13:49:18;5.38;;;3.22;;
27925;SDS011;15267;47.838;12.128;2023-12-29T13:51:44;5.72;;;3.47;;
27925;SDS011;15267;47.838;12.128;2023-12-29T13:54:10;7.40;;;4.20;;
27925;SDS011;15267;47.838;12.128;2023-12-29T13:56:36;6.18;;;3.30;;
27925;SDS011;15267;47.838;12.128;2023-12-29T13:59:03;3.53;;;2.65;;
27925;SDS011;15267;47.838;12.128;2023-12-29T14:01:38;6.82;;;3.38;;
27925;SDS011;15267;47.838;12.128;2023-12-29T14:04:06;6.30;;;3.40;;
27925;SDS011;15267;47.838;12.128;2023-12-29T14:06:49;6.78;;;3.50;;
27925;SDS011;15267;47.838;12.128;2023-12-29T14:09:16;6.57;;;3.00;;
27925;SDS011;15267;47.838;12.128;2023-12-29T14:11:48;5.68;;;3.15;;
27925;SDS011;15267;47.838;12.128;2023-12-29T14:14:25;6.10;;;3.63;;
27925;SDS011;15267;47.838;12.128;2023-12-29T14:16:52;6.07;;;3.63;;
27925;SDS011;15267;47.838;12.128;2023-12-29T14:19:18;6.28;;;4.05;;
27925;SDS011;15267;47.838;12.128;2023-12-29T14:21:44;5.80;;;3.78;;
27925;SDS011;15267;47.838;12.128;2023-12-29T14:24:12;5.40;;;3.50;;
27925;SDS011;15267;47.838;12.128;2023-12-29T14:26:39;6.45;;;3.85;;
27925;SDS011;15267;47.838;12.128;2023-12-29T14:29:07;7.53;;;3.72;;
27925;SDS011;15267;47.838;12.128;2023-12-29T14:31:34;6.90;;;3.90;;
27925;SDS011;15267;47.838;12.128;2023-12-29T14:34:01;8.07;;;4.78;;
27925;SDS011;15267;47.838;12.128;2023-12-29T14:36:28;15.40;;;9.73;;
27925;SDS011;15267;47.838;12.128;2023-12-29T14:38:54;7.85;;;5.50;;
27925;SDS011;15267;47.838;12.128;2023-12-29T14:41:20;7.28;;;4.47;;
27925;SDS011;15267;47.838;12.128;2023-12-29T14:43:46;8.18;;;4.38;;
27925;SDS011;15267;47.838;12.128;2023-12-29T14:46:12;7.03;;;4.45;;
27925;SDS011;15267;47.838;12.128;2023-12-29T14:48:38;7.55;;;4.20;;
27925;SDS011;15267;47.838;12.128;2023-12-29T14:51:04;9.55;;;4.45;;
27925;SDS011;15267;47.838;12.128;2023-12-29T14:53:30;7.50;;;4.10;;